Time;durP1;ratioP1;P1;durP2;ratioP2;P2;SDS_P1;SDS_P2;PMS_P1;PMS_P2;Temp;Humidity;BMP_temperature;BMP_pressure;BME280_temperature;BME280_humidity;BME280_pressure;Samples;Min_cycle;Max_cycle;Signal;HPM_P1;HPM_P2
2022/07/13 00:02:06;;;;;;;14.18;11.00;;;;;;;;;;5070692;28;20125;-66
2022/07/13 00:04:32;;;;;;;11.88;10.15;;;;;;;;;;5071001;28;20047;-66
2022/07/13 00:06:58;;;;;;;12.68;10.05;;;;;;;;;;5069681;28;20040;-66
2022/07/13 00:09:24;;;;;;;13.88;11.02;;;;;;;;;;5071234;28;20393;-66
2022/07/13 00:11:50;;;;;;;15.85;11.13;;;;;;;;;;5070831;28;20396;-66
2022/07/13 00:14:16;;;;;;;15.25;10.82;;;;;;;;;;5071205;28;20440;-66
2022/07/13 00:16:42;;;;;;;14.88;11.95;;;;;;;;;;5070955;28;20543;-66
2022/07/13 00:19:08;;;;;;;13.88;11.13;;;;;;;;;;5070523;28;20041;-66
2022/07/13 00:21:34;;;;;;;14.93;13.27;;;;;;;;;;5053284;28;20094;-66
2022/07/13 00:24:00;;;;;;;13.85;11.20;;;;;;;;;;5070191;28;20121;-66
2022/07/13 00:26:27;;;;;;;13.68;11.35;;;;;;;;;;5071940;28;20477;-66
2022/07/13 00:28:54;;;;;;;14.88;12.38;;;;;;;;;;5069680;28;20044;-66
2022/07/13 00:31:20;;;;;;;16.35;12.75;;;;;;;;;;5072048;28;20052;-66
2022/07/13 00:33:46;;;;;;;15.57;12.80;;;;;;;;;;5070664;28;20079;-65
2022/07/13 00:36:12;;;;;;;16.50;12.88;;;;;;;;;;5069610;28;20044;-66
2022/07/13 00:38:38;;;;;;;15.77;12.57;;;;;;;;;;5072558;28;20048;-66
2022/07/13 00:41:05;;;;;;;16.20;13.80;;;;;;;;;;5074359;28;20059;-66
2022/07/13 00:43:31;;;;;;;15.90;12.43;;;;;;;;;;5074940;28;20474;-66
2022/07/13 00:45:57;;;;;;;13.75;11.98;;;;;;;;;;5074073;28;20043;-66
2022/07/13 00:48:23;;;;;;;12.35;11.00;;;;;;;;;;5075744;28;20098;-66
2022/07/13 00:50:50;;;;;;;16.20;11.68;;;;;;;;;;5073671;28;20036;-66
2022/07/13 00:53:16;;;;;;;16.38;11.32;;;;;;;;;;5075432;28;20076;-66
2022/07/13 00:55:42;;;;;;;14.57;11.70;;;;;;;;;;5075104;28;20440;-66
2022/07/13 00:58:09;;;;;;;14.85;12.00;;;;;;;;;;5075316;28;20052;-66
2022/07/13 01:00:36;;;;;;;15.30;12.75;;;;;;;;;;5074245;28;20071;-66
2022/07/13 01:03:02;;;;;;;14.77;12.25;;;;;;;;;;5074225;28;20141;-66
2022/07/13 01:05:28;;;;;;;14.50;11.52;;;;;;;;;;5075323;28;20076;-66
2022/07/13 01:07:55;;;;;;;18.17;13.27;;;;;;;;;;5074969;28;20390;-66
2022/07/13 01:10:21;;;;;;;13.00;11.25;;;;;;;;;;5074788;28;20503;-66
2022/07/13 01:12:48;;;;;;;14.30;11.85;;;;;;;;;;5075016;28;20180;-66
2022/07/13 01:15:19;;;;;;;15.02;11.68;;;;;;;;;;5073803;28;20044;-66
2022/07/13 01:17:45;;;;;;;12.70;10.18;;;;;;;;;;5056361;28;20052;-66
2022/07/13 01:20:11;;;;;;;14.20;12.00;;;;;;;;;;5075037;28;20154;-66
2022/07/13 01:22:47;;;;;;;15.50;10.65;;;;;;;;;;5057076;28;20055;-66
2022/07/13 01:25:15;;;;;;;15.85;12.65;;;;;;;;;;5072894;28;20052;-66
2022/07/13 01:27:42;;;;;;;14.95;12.73;;;;;;;;;;5074970;28;20056;-66
2022/07/13 01:30:08;;;;;;;15.27;11.60;;;;;;;;;;5056805;28;20044;-66
2022/07/13 01:32:51;;;;;;;15.68;12.45;;;;;;;;;;5074344;28;20051;-66
2022/07/13 01:35:18;;;;;;;14.07;11.95;;;;;;;;;;5073668;28;20370;-66
2022/07/13 01:37:44;;;;;;;21.92;14.15;;;;;;;;;;5074524;28;20048;-66
2022/07/13 01:40:11;;;;;;;16.50;12.25;;;;;;;;;;5072340;28;20040;-66
2022/07/13 01:42:46;;;;;;;14.00;11.95;;;;;;;;;;5074947;28;20048;-66
2022/07/13 01:45:13;;;;;;;17.35;13.10;;;;;;;;;;5073865;28;20083;-66
2022/07/13 01:47:40;;;;;;;13.60;11.98;;;;;;;;;;5073438;28;20072;-66
2022/07/13 01:50:07;;;;;;;15.27;12.60;;;;;;;;;;5073604;28;20043;-66
2022/07/13 01:52:33;;;;;;;15.15;12.18;;;;;;;;;;5072522;28;20572;-66
2022/07/13 01:54:59;;;;;;;14.52;12.10;;;;;;;;;;5072719;28;20040;-66
2022/07/13 01:57:25;;;;;;;17.27;12.30;;;;;;;;;;5073257;28;20047;-66
2022/07/13 01:59:52;;;;;;;15.82;11.30;;;;;;;;;;5073409;28;20496;-66
2022/07/13 02:02:18;;;;;;;13.48;10.80;;;;;;;;;;5073015;28;20040;-66
2022/07/13 02:04:44;;;;;;;16.63;12.20;;;;;;;;;;5056183;28;20085;-66
2022/07/13 02:07:10;;;;;;;13.98;11.23;;;;;;;;;;5071984;28;20033;-66
2022/07/13 02:09:36;;;;;;;15.32;11.60;;;;;;;;;;5056302;28;20507;-66
2022/07/13 02:12:02;;;;;;;16.73;12.10;;;;;;;;;;5073889;28;20032;-66
2022/07/13 02:14:28;;;;;;;13.55;10.50;;;;;;;;;;5055592;28;20094;-66
2022/07/13 02:16:54;;;;;;;13.35;11.52;;;;;;;;;;5073488;28;20048;-65
2022/07/13 02:19:21;;;;;;;13.30;10.45;;;;;;;;;;5074113;28;20040;-65
2022/07/13 02:21:47;;;;;;;13.55;11.18;;;;;;;;;;5072801;28;20041;-66
2022/07/13 02:24:14;;;;;;;13.85;10.52;;;;;;;;;;5073742;28;20051;-66
2022/07/13 02:26:40;;;;;;;17.90;11.80;;;;;;;;;;5072664;28;20076;-66
2022/07/13 02:29:06;;;;;;;13.50;10.88;;;;;;;;;;5071516;28;20044;-65
2022/07/13 02:31:34;;;;;;;15.85;11.02;;;;;;;;;;5072528;28;20040;-66
2022/07/13 02:34:01;;;;;;;15.70;10.93;;;;;;;;;;5072158;28;20045;-66
2022/07/13 02:36:27;;;;;;;14.38;10.98;;;;;;;;;;5071767;28;20041;-66
2022/07/13 02:38:53;;;;;;;12.27;10.18;;;;;;;;;;5071769;28;20048;-66
2022/07/13 02:41:19;;;;;;;11.48;9.55;;;;;;;;;;5071583;28;20123;-66
2022/07/13 02:43:45;;;;;;;13.73;9.32;;;;;;;;;;5073423;28;20099;-66
2022/07/13 02:46:11;;;;;;;11.23;9.18;;;;;;;;;;5072403;28;20045;-66
2022/07/13 02:48:37;;;;;;;10.60;8.82;;;;;;;;;;5072563;28;20040;-66
2022/07/13 02:51:03;;;;;;;12.27;8.95;;;;;;;;;;5071700;28;20555;-66
2022/07/13 02:53:29;;;;;;;12.27;8.68;;;;;;;;;;5073629;28;20052;-66
2022/07/13 02:55:55;;;;;;;10.98;8.80;;;;;;;;;;5071072;28;20041;-66
2022/07/13 02:58:21;;;;;;;13.05;9.40;;;;;;;;;;5072227;28;20447;-66
2022/07/13 03:00:47;;;;;;;12.93;9.20;;;;;;;;;;5070772;28;20119;-66
2022/07/13 03:03:13;;;;;;;12.38;9.45;;;;;;;;;;5072195;28;20053;-66
2022/07/13 03:05:39;;;;;;;10.38;7.68;;;;;;;;;;5071870;28;20051;-66
2022/07/13 03:08:05;;;;;;;11.45;7.63;;;;;;;;;;5071407;28;20055;-66
2022/07/13 03:10:31;;;;;;;15.15;9.73;;;;;;;;;;5071128;28;20040;-66
2022/07/13 03:12:58;;;;;;;13.82;9.07;;;;;;;;;;5071230;28;20044;-66
2022/07/13 03:15:24;;;;;;;10.63;8.75;;;;;;;;;;5071577;28;20127;-66
2022/07/13 03:17:50;;;;;;;11.00;7.93;;;;;;;;;;5071834;28;20079;-66
2022/07/13 03:20:17;;;;;;;13.60;8.77;;;;;;;;;;5071281;28;20040;-66
2022/07/13 03:22:43;;;;;;;11.68;8.48;;;;;;;;;;5071322;28;20056;-66
2022/07/13 03:25:09;;;;;;;10.68;8.20;;;;;;;;;;5070601;28;20048;-66
2022/07/13 03:27:35;;;;;;;9.73;7.82;;;;;;;;;;5072961;28;20040;-66
2022/07/13 03:30:01;;;;;;;10.60;8.15;;;;;;;;;;5072141;28;20401;-66
2022/07/13 03:32:28;;;;;;;11.05;7.95;;;;;;;;;;5070675;28;20087;-66
2022/07/13 03:34:54;;;;;;;12.55;7.78;;;;;;;;;;5071116;28;20124;-66
2022/07/13 03:37:20;;;;;;;10.05;7.70;;;;;;;;;;5072837;28;20040;-66
2022/07/13 03:39:46;;;;;;;10.48;7.78;;;;;;;;;;5070444;28;20040;-66
2022/07/13 03:42:12;;;;;;;9.32;6.80;;;;;;;;;;5071255;28;20109;-66
2022/07/13 03:44:38;;;;;;;11.50;7.05;;;;;;;;;;5070463;28;20098;-66
2022/07/13 03:47:04;;;;;;;10.93;8.02;;;;;;;;;;5070462;28;20516;-67
2022/07/13 03:49:30;;;;;;;10.48;7.43;;;;;;;;;;5054650;28;20071;-66
2022/07/13 03:51:56;;;;;;;11.07;7.88;;;;;;;;;;5071271;28;20040;-66
2022/07/13 03:54:22;;;;;;;9.55;7.18;;;;;;;;;;5062847;28;20036;-67
2022/07/13 03:56:48;;;;;;;10.25;7.32;;;;;;;;;;5050757;28;20490;-67
2022/07/13 03:59:15;;;;;;;11.23;7.28;;;;;;;;;;5049984;28;20072;-67
2022/07/13 04:01:41;;;;;;;10.18;6.97;;;;;;;;;;5072090;28;20570;-67
2022/07/13 04:04:07;;;;;;;10.15;7.07;;;;;;;;;;5070752;28;20489;-67
2022/07/13 04:06:33;;;;;;;11.80;6.63;;;;;;;;;;5070244;28;20045;-67
2022/07/13 04:09:00;;;;;;;11.80;8.18;;;;;;;;;;5069634;28;20044;-66
2022/07/13 04:11:26;;;;;;;10.55;7.85;;;;;;;;;;5071081;28;20047;-66
2022/07/13 04:13:52;;;;;;;14.35;8.32;;;;;;;;;;5056153;28;20127;-66
2022/07/13 04:16:18;;;;;;;9.75;6.85;;;;;;;;;;5034058;28;20049;-67
2022/07/13 04:18:44;;;;;;;9.75;7.47;;;;;;;;;;5050375;28;20048;-67
2022/07/13 04:21:11;;;;;;;11.13;8.00;;;;;;;;;;5049893;28;20500;-67
2022/07/13 04:23:37;;;;;;;10.77;7.35;;;;;;;;;;5052497;28;20061;-66
2022/07/13 04:26:04;;;;;;;13.32;8.18;;;;;;;;;;5050326;28;20139;-66
2022/07/13 04:28:30;;;;;;;10.65;7.50;;;;;;;;;;5070047;28;20043;-66
2022/07/13 04:30:56;;;;;;;10.55;7.70;;;;;;;;;;5070115;28;20128;-66
2022/07/13 04:33:22;;;;;;;12.73;8.73;;;;;;;;;;5071096;28;20093;-67
2022/07/13 04:35:48;;;;;;;11.82;8.18;;;;;;;;;;5066202;28;20041;-66
2022/07/13 04:38:14;;;;;;;10.50;7.47;;;;;;;;;;5070741;28;20045;-67
2022/07/13 04:40:40;;;;;;;9.77;6.97;;;;;;;;;;5070770;28;20040;-66
2022/07/13 04:43:06;;;;;;;12.90;8.60;;;;;;;;;;5069388;28;20036;-67
2022/07/13 04:45:32;;;;;;;11.45;8.45;;;;;;;;;;5061106;28;20482;-66
2022/07/13 04:47:59;;;;;;;12.55;8.60;;;;;;;;;;5050561;28;20052;-67
2022/07/13 04:50:25;;;;;;;14.43;8.70;;;;;;;;;;5051939;28;20041;-66
2022/07/13 04:52:51;;;;;;;12.10;8.77;;;;;;;;;;5050568;28;20048;-66
2022/07/13 04:55:17;;;;;;;13.32;9.50;;;;;;;;;;5049805;28;20076;-66
2022/07/13 04:57:44;;;;;;;10.77;8.73;;;;;;;;;;5051377;28;20045;-66
2022/07/13 05:00:10;;;;;;;12.52;8.13;;;;;;;;;;5050444;28;20037;-66
2022/07/13 05:02:36;;;;;;;12.77;8.73;;;;;;;;;;5050918;28;20045;-66
2022/07/13 05:05:03;;;;;;;14.95;8.32;;;;;;;;;;5049840;28;20037;-67
2022/07/13 05:07:29;;;;;;;12.80;9.30;;;;;;;;;;5053059;28;20033;-67
2022/07/13 05:09:56;;;;;;;12.35;8.73;;;;;;;;;;5060230;28;20037;-67
2022/07/13 05:12:22;;;;;;;12.88;9.20;;;;;;;;;;5050502;28;20516;-67
2022/07/13 05:14:48;;;;;;;14.27;7.63;;;;;;;;;;5065218;28;20497;-66
2022/07/13 05:17:14;;;;;;;11.52;7.65;;;;;;;;;;5069324;28;20040;-66
2022/07/13 05:19:40;;;;;;;11.95;7.22;;;;;;;;;;5068675;28;20028;-66
2022/07/13 05:22:06;;;;;;;12.65;7.35;;;;;;;;;;5057360;28;20124;-66
2022/07/13 05:24:33;;;;;;;13.00;7.47;;;;;;;;;;5052960;28;20059;-66
2022/07/13 05:26:59;;;;;;;12.90;7.20;;;;;;;;;;5072703;28;20496;-66
2022/07/13 05:29:25;;;;;;;11.85;7.38;;;;;;;;;;5073884;28;20048;-66
2022/07/13 05:31:51;;;;;;;9.27;6.75;;;;;;;;;;5044376;28;20048;-66
2022/07/13 05:34:17;;;;;;;12.60;7.55;;;;;;;;;;5037144;28;20049;-66
2022/07/13 05:36:43;;;;;;;10.55;7.25;;;;;;;;;;5064090;28;20040;-66
2022/07/13 05:39:09;;;;;;;10.18;6.60;;;;;;;;;;5073968;28;20040;-66
2022/07/13 05:41:35;;;;;;;13.65;7.60;;;;;;;;;;5069545;28;20083;-66
2022/07/13 05:44:01;;;;;;;11.05;6.32;;;;;;;;;;5048719;28;20036;-66
2022/07/13 05:46:27;;;;;;;14.55;9.07;;;;;;;;;;5056748;28;20037;-66
2022/07/13 05:48:53;;;;;;;10.55;7.10;;;;;;;;;;5073229;28;20048;-66
2022/07/13 05:51:19;;;;;;;11.25;7.40;;;;;;;;;;5070363;28;20075;-66
2022/07/13 05:53:46;;;;;;;13.52;7.07;;;;;;;;;;5054444;28;20048;-66
2022/07/13 05:56:13;;;;;;;12.25;6.78;;;;;;;;;;5053437;28;20044;-66
2022/07/13 05:58:39;;;;;;;10.27;7.03;;;;;;;;;;5054512;28;20063;-66
2022/07/13 06:01:05;;;;;;;13.57;8.20;;;;;;;;;;5052644;28;20120;-66
2022/07/13 06:03:31;;;;;;;10.55;7.00;;;;;;;;;;5054706;28;20167;-66
2022/07/13 06:05:58;;;;;;;12.70;7.53;;;;;;;;;;5061553;28;20044;-66
2022/07/13 06:08:24;;;;;;;14.02;8.18;;;;;;;;;;5064683;28;20048;-66
2022/07/13 06:10:50;;;;;;;14.32;8.02;;;;;;;;;;5063144;28;20033;-66
2022/07/13 06:13:16;;;;;;;10.82;7.32;;;;;;;;;;5068671;28;20036;-66
2022/07/13 06:15:42;;;;;;;12.27;7.40;;;;;;;;;;5072231;28;20471;-66
2022/07/13 06:18:08;;;;;;;13.95;8.93;;;;;;;;;;5055974;28;20041;-66
2022/07/13 06:20:34;;;;;;;12.35;8.45;;;;;;;;;;5070536;28;20048;-66
2022/07/13 06:23:12;;;;;;;14.40;9.80;;;;;;;;;;5055716;28;20060;-66
2022/07/13 06:25:38;;;;;;;15.23;10.25;;;21.20;99.90;;;;;;5050750;28;20045;-66
2022/07/13 06:28:05;;;;;;;15.25;10.40;;;21.20;99.90;;;;;;5032952;28;20080;-66
2022/07/13 06:30:31;;;;;;;12.73;10.05;;;21.20;99.90;;;;;;5052078;28;20123;-66
2022/07/13 06:32:57;;;;;;;15.50;10.60;;;;;;;;;;5070009;28;20374;-66
2022/07/13 06:35:23;;;;;;;14.60;10.50;;;21.40;99.90;;;;;;5068339;28;20052;-66
2022/07/13 06:37:49;;;;;;;13.70;11.13;;;21.60;99.90;;;;;;5069963;28;20036;-66
2022/07/13 06:40:15;;;;;;;14.48;10.88;;;21.70;99.90;;;;;;5052943;28;20095;-66
2022/07/13 06:42:41;;;;;;;17.60;10.95;;;;;;;;;;5068184;28;20044;-66
2022/07/13 06:45:07;;;;;;;16.42;10.20;;;;;;;;;;5051673;28;20041;-66
2022/07/13 06:47:33;;;;;;;19.80;10.40;;;21.90;99.90;;;;;;5052273;28;20052;-65
2022/07/13 06:49:59;;;;;;;14.13;11.13;;;22.00;99.90;;;;;;5070682;28;20394;-66
2022/07/13 06:52:25;;;;;;;13.55;11.70;;;;;;;;;;5070966;28;20032;-66
2022/07/13 06:54:50;;;;;;;13.48;10.85;;;22.20;99.90;;;;;;5051322;28;20094;-66
2022/07/13 06:57:16;;;;;;;14.25;11.70;;;22.10;99.90;;;;;;5069091;28;20723;-66
2022/07/13 06:59:42;;;;;;;14.15;11.60;;;;;;;;;;5064185;28;20515;-66
2022/07/13 07:02:08;;;;;;;14.15;10.10;;;22.30;99.90;;;;;;5065438;28;20469;-65
2022/07/13 07:04:34;;;;;;;18.17;11.38;;;22.40;99.90;;;;;;5056901;28;20045;-64
2022/07/13 07:07:01;;;;;;;17.67;11.27;;;22.40;99.90;;;;;;5052146;28;20037;-63
2022/07/13 07:09:27;;;;;;;16.05;11.05;;;22.50;99.90;;;;;;5051332;28;20453;-63
2022/07/13 07:11:53;;;;;;;15.00;10.63;;;;;;;;;;5051738;28;20051;-64
2022/07/13 07:14:18;;;;;;;16.38;11.43;;;22.50;99.90;;;;;;5051957;28;20098;-64
2022/07/13 07:16:44;;;;;;;15.15;11.73;;;22.50;99.90;;;;;;5053283;28;20044;-64
2022/07/13 07:19:10;;;;;;;16.92;11.27;;;22.50;99.90;;;;;;5062108;28;20037;-64
2022/07/13 07:21:37;;;;;;;15.10;9.55;;;22.60;99.90;;;;;;5064532;28;20043;-63
2022/07/13 07:24:04;;;;;;;13.27;9.70;;;;;;;;;;5071415;28;20086;-63
2022/07/13 07:26:30;;;;;;;15.10;10.23;;;;;;;;;;5051744;28;20454;-64
2022/07/13 07:28:57;;;;;;;16.88;10.60;;;;;;;;;;5051202;28;20036;-64
2022/07/13 07:31:24;;;;;;;15.95;10.75;;;;;;;;;;5051306;28;20049;-64
2022/07/13 07:33:50;;;;;;;18.70;11.32;;;;;;;;;;5061110;28;20036;-63
2022/07/13 07:36:16;;;;;;;13.85;10.50;;;;;;;;;;5071856;28;20040;-63
2022/07/13 07:38:43;;;;;;;14.95;10.10;;;;;;;;;;5070482;28;20098;-64
2022/07/13 07:41:10;;;;;;;15.15;9.88;;;;;;;;;;5066870;28;20040;-64
2022/07/13 07:43:39;;;;;;;14.55;9.90;;;;;;;;;;5069995;28;20044;-64
2022/07/13 07:46:05;;;;;;;13.50;9.23;;;23.00;99.90;;;;;;5069513;28;20040;-64
2022/07/13 07:48:31;;;;;;;14.25;8.93;;;;;;;;;;5032945;28;20045;-64
2022/07/13 07:50:57;;;;;;;11.88;8.63;;;;;;;;;;5069028;28;20068;-64
2022/07/13 07:53:23;;;;;;;10.95;8.05;;;;;;;;;;5068598;28;20048;-64
2022/07/13 07:55:49;;;;;;;15.70;10.18;;;23.30;99.90;;;;;;5050500;28;20162;-64
2022/07/13 07:58:15;;;;;;;13.43;8.75;;;23.30;99.90;;;;;;5050661;28;20584;-64
2022/07/13 08:00:41;;;;;;;12.65;8.45;;;23.30;99.90;;;;;;5050921;28;20548;-64
2022/07/13 08:03:07;;;;;;;14.15;7.55;;;23.40;99.90;;;;;;5035941;28;20078;-64
2022/07/13 08:05:34;;;;;;;10.90;6.57;;;23.30;99.90;;;;;;5065389;28;20033;-71
2022/07/13 08:08:00;;;;;;;8.60;6.00;;;23.50;99.90;;;;;;5065316;28;20045;-71
2022/07/13 08:10:26;;;;;;;11.48;7.35;;;23.60;99.90;;;;;;5061517;28;20097;-71
2022/07/13 08:12:53;;;;;;;12.20;7.15;;;;;;;;;;5067541;28;20044;-71
2022/07/13 08:15:19;;;;;;;10.55;7.60;;;23.50;99.90;;;;;;5060808;28;20052;-71
2022/07/13 08:17:45;;;;;;;10.57;6.40;;;23.60;99.90;;;;;;5058391;28;20044;-71
2022/07/13 08:20:11;;;;;;;11.15;5.70;;;23.70;99.90;;;;;;5066631;28;20047;-71
2022/07/13 08:22:38;;;;;;;8.98;5.43;;;23.60;99.90;;;;;;5069469;28;20064;-71
2022/07/13 08:25:04;;;;;;;8.05;5.25;;;23.70;99.90;;;;;;5061971;28;20178;-71
2022/07/13 08:27:32;;;;;;;8.77;5.22;;;;;;;;;;5068122;28;20047;-71
2022/07/13 08:29:58;;;;;;;9.40;6.03;;;;;;;;;;5068537;28;20048;-71
2022/07/13 08:32:24;;;;;;;8.90;4.72;;;23.90;99.90;;;;;;5068259;28;20174;-71
2022/07/13 08:40:19;;;;;;;5.80;3.67;;;24.10;99.90;;;;;;5066070;28;20124;-71
2022/07/13 08:42:45;;;;;;;7.72;4.32;;;24.20;99.90;;;;;;5065555;28;20118;-71
2022/07/13 08:45:11;;;;;;;7.20;3.63;;;24.20;99.90;;;;;;5063232;28;20037;-71
2022/07/13 08:47:38;;;;;;;10.20;4.13;;;;;;;;;;5049525;28;20040;-71
2022/07/13 08:50:06;;;;;;;8.95;5.18;;;24.30;99.90;;;;;;5053265;28;20509;-71
2022/07/13 08:52:38;;;;;;;9.05;4.32;;;24.50;99.90;;;;;;5067736;28;20489;-71
2022/07/13 08:55:05;;;;;;;8.73;4.30;;;24.70;99.90;;;;;;5048885;28;20434;-70
2022/07/13 08:57:36;;;;;;;11.13;6.35;;;24.70;99.90;;;;;;5050615;28;20080;-71
2022/07/13 09:00:05;;;;;;;8.00;5.18;;;24.60;99.90;;;;;;5052727;28;20033;-69
2022/07/13 09:02:31;;;;;;;8.98;4.97;;;24.60;99.90;;;;;;5055119;28;20045;-70
2022/07/13 09:04:58;;;;;;;11.82;5.95;;;24.50;99.90;;;;;;5067685;28;20024;-71
2022/07/13 09:07:24;;;;;;;10.60;6.22;;;24.40;99.90;;;;;;5068736;28;20154;-69
2022/07/13 09:09:56;;;;;;;9.45;6.72;;;24.40;99.90;;;;;;5071608;28;20484;-71
2022/07/13 09:12:24;;;;;;;10.43;7.55;;;24.30;99.90;;;;;;5058624;28;20044;-71
2022/07/13 09:14:55;;;;;;;12.52;8.35;;;24.70;99.90;;;;;;5063269;28;20052;-71
2022/07/13 09:17:38;;;;;;;11.75;8.05;;;24.30;99.90;;;;;;5056860;28;20041;-72
2022/07/13 09:20:12;;;;;;;15.75;8.77;;;24.70;99.90;;;;;;5063970;28;20055;-72
2022/07/13 09:22:54;;;;;;;10.35;7.53;;;24.50;99.90;;;;;;5071738;28;20146;-71
2022/07/13 09:25:39;;;;;;;13.45;7.38;;;24.50;99.90;;;;;;5056714;28;20431;-72
2022/07/13 09:28:05;;;;;;;;;;;24.50;99.90;;;;;;5056507;28;20497;-72
2022/07/13 09:30:32;;;;;;;11.65;7.38;;;24.60;99.90;;;;;;5066675;28;19970;-72
2022/07/13 09:32:59;;;;;;;10.30;7.18;;;24.60;99.90;;;;;;5074117;28;20036;-69
2022/07/13 09:35:46;;;;;;;12.57;7.93;;;24.50;99.90;;;;;;5068423;28;20543;-69
2022/07/13 09:38:33;;;;;;;9.82;6.13;;;24.30;99.90;;;;;;5052514;28;20060;-69
2022/07/13 09:41:19;;;;;;;9.43;6.60;;;;;;;;;;5055988;28;20037;-69
2022/07/13 09:46:37;;;;;;;9.02;5.60;;;;;;;;;;5064062;28;20040;-69
2022/07/13 09:49:03;;;;;;;7.45;4.18;;;;;;;;;;5066339;28;20059;-69
2022/07/13 09:51:29;;;;;;;7.32;5.20;;;;;;;;;;5066116;28;20122;-70
2022/07/13 09:54:01;;;;;;;9.00;5.30;;;;;;;;;;5054072;28;20041;-70
2022/07/13 09:56:28;;;;;;;8.82;5.60;;;;;;;;;;5064280;28;20044;-72
2022/07/13 09:58:54;;;;;;;6.63;4.18;;;;;;;;;;5055049;28;20378;-71
2022/07/13 10:01:21;;;;;;;7.40;4.57;;;;;;;;;;5072863;28;20112;-71
2022/07/13 10:03:47;;;;;;;6.85;4.88;;;;;;;;;;5062225;28;20043;-71
2022/07/13 10:06:13;;;;;;;8.63;5.30;;;;;;;;;;5061662;28;20052;-71
2022/07/13 10:08:40;;;;;;;6.63;4.03;;;;;;;;;;5056236;28;20051;-71
2022/07/13 10:11:06;;;;;;;8.00;4.20;;;;;;;;;;5060018;28;20083;-71
2022/07/13 10:13:33;;;;;;;9.80;4.53;;;;;;;;;;5057956;28;20056;-71
2022/07/13 10:15:59;;;;;;;5.40;3.17;;;;;;;;;;5066545;28;20052;-70
2022/07/13 10:18:30;;;;;;;7.28;3.47;;;;;;;;;;5059093;28;20132;-67
2022/07/13 10:21:01;;;;;;;7.47;4.28;;;;;;;;;;5066759;28;20037;-67
2022/07/13 10:23:37;;;;;;;5.65;2.95;;;;;;;;;;5054091;28;20060;-68
2022/07/13 10:26:04;;;;;;;6.47;2.83;;;;;;;;;;5060216;28;20049;-68
2022/07/13 10:28:29;;;;;;;7.53;3.40;;;24.80;99.90;;;;;;5070119;28;20048;-70
2022/07/13 10:30:57;;;;;;;6.68;2.90;;;;;;;;;;5070664;28;20044;-69
2022/07/13 10:33:26;;;;;;;6.30;2.58;;;;;;;;;;5073007;28;20117;-69
2022/07/13 10:35:55;;;;;;;6.80;2.58;;;24.60;99.90;;;;;;5072161;28;20473;-69
2022/07/13 10:38:28;;;;;;;7.00;2.90;;;24.80;99.90;;;;;;5071902;28;20040;-69
2022/07/13 10:41:23;;;;;;;5.68;2.50;;;24.90;99.90;;;;;;5060467;28;20040;-68
2022/07/13 10:44:03;;;;;;;6.28;2.53;;;24.80;99.90;;;;;;5059338;28;20549;-68
2022/07/13 10:46:49;;;;;;;5.30;2.38;;;24.90;99.90;;;;;;5050607;28;20041;-70
2022/07/13 10:49:37;;;;;;;5.45;2.70;;;24.80;99.90;;;;;;5052496;28;20527;-62
2022/07/13 10:52:21;;;;;;;5.32;3.22;;;24.90;99.90;;;;;;5053140;28;20053;-62
2022/07/13 10:55:11;;;;;;;6.05;3.53;;;25.00;99.90;;;;;;5049560;28;20044;-62
2022/07/13 10:57:42;;;;;;;6.35;3.45;;;24.90;99.90;;;;;;5051916;28;20045;-62
2022/07/13 11:00:18;;;;;;;6.13;3.20;;;25.00;99.90;;;;;;5056599;28;20039;-62
2022/07/13 11:02:49;;;;;;;4.78;2.70;;;24.70;99.90;;;;;;5065746;28;20082;-62
2022/07/13 11:05:19;;;;;;;5.78;2.60;;;;;;;;;;5068913;28;20068;-62
2022/07/13 11:07:48;;;;;;;5.30;3.13;;;24.50;99.90;;;;;;5059062;28;20049;-62
2022/07/13 11:10:34;;;;;;;6.72;3.28;;;24.30;99.90;;;;;;5061792;28;20251;-62
2022/07/13 11:13:09;;;;;;;7.22;3.80;;;24.30;99.90;;;;;;5052181;28;20037;-62
2022/07/13 11:15:45;;;;;;;6.50;3.53;;;24.20;99.90;;;;;;5057434;28;20556;-62
2022/07/13 11:18:30;;;;;;;8.27;3.92;;;;;;;;;;5069509;28;20040;-62
2022/07/13 11:21:18;;;;;;;8.70;3.78;;;;;;;;;;5052576;28;20045;-62
2022/07/13 11:26:55;;;;;;;7.68;3.85;;;;;;;;;;5066546;28;20052;-62
2022/07/13 11:29:24;;;;;;;6.75;4.10;;;;;;;;;;5065815;28;20053;-62
2022/07/13 11:31:57;;;;;;;7.20;3.97;;;;;;;;;;5066898;28;20048;-62
2022/07/13 11:34:24;;;;;;;7.00;3.40;;;;;;;;;;5067169;28;20132;-62
2022/07/13 11:36:50;;;;;;;6.10;3.50;;;;;;;;;;5069078;28;20564;-62
2022/07/13 11:39:23;;;;;;;8.25;3.88;;;;;;;;;;5067237;28;20049;-63
2022/07/13 11:41:51;;;;;;;5.97;3.35;;;;;;;;;;5044394;28;20071;-62
2022/07/13 11:44:17;;;;;;;6.20;2.95;;;;;;;;;;5061009;28;20055;-62
2022/07/13 11:46:46;;;;;;;7.05;2.85;;;;;;;;;;5052311;28;20040;-62
2022/07/13 11:49:12;;;;;;;7.40;3.22;;;;;;;;;;5066986;28;20045;-62
2022/07/13 11:51:38;;;;;;;7.13;3.28;;;;;;;;;;5069926;28;20115;-62
2022/07/13 11:54:10;;;;;;;6.80;3.40;;;;;;;;;;5059986;28;20128;-62
2022/07/13 11:56:52;;;;;;;7.63;3.70;;;;;;;;;;5049276;28;20032;-62
2022/07/13 11:59:38;;;;;;;6.85;3.42;;;;;;;;;;5054716;28;20123;-61
2022/07/13 12:02:04;;;;;;;7.95;3.80;;;;;;;;;;5050143;28;20159;-62
2022/07/13 12:04:31;;;;;;;9.93;3.85;;;;;;;;;;5049530;28;20041;-62
2022/07/13 12:07:32;;;;;;;12.95;4.25;;;;;;;;;;5050452;28;20072;-62
2022/07/13 12:10:03;;;;;;;8.52;4.35;;;;;;;;;;5025793;28;20136;-62
2022/07/13 12:12:30;;;;;;;9.10;3.70;;;;;;;;;;5054946;28;20051;-62
2022/07/13 12:14:57;;;;;;;6.60;3.38;;;23.70;99.90;;;;;;5050700;28;20117;-62
2022/07/13 12:17:24;;;;;;;7.13;3.17;;;;;;;;;;5049767;28;20485;-62
2022/07/13 12:19:51;;;;;;;11.90;4.72;;;;;;;;;;5052400;28;20493;-62
2022/07/13 12:22:21;;;;;;;6.45;3.30;;;;;;;;;;5067630;28;20393;-62
2022/07/13 12:24:47;;;;;;;8.02;3.63;;;;;;;;;;5050721;28;20049;-62
2022/07/13 12:27:26;;;;;;;5.68;3.45;;;;;;;;;;5048719;28;20045;-62
2022/07/13 12:29:52;;;;;;;9.82;3.72;;;;;;;;;;5051282;28;20063;-62
2022/07/13 12:32:18;;;;;;;9.40;3.65;;;;;;;;;;5048236;28;20049;-62
2022/07/13 12:34:52;;;;;;;6.75;2.65;;;;;;;;;;5068007;28;20398;-62
2022/07/13 12:37:37;;;;;;;7.35;2.80;;;;;;;;;;5060805;28;20493;-62
2022/07/13 12:40:04;;;;;;;7.45;3.38;;;;;;;;;;5066266;28;20311;-63
2022/07/13 12:42:32;;;;;;;11.82;3.20;;;;;;;;;;5037409;28;20040;-62
2022/07/13 12:44:58;;;;;;;7.65;3.05;;;;;;;;;;5066999;28;20048;-63
2022/07/13 12:47:24;;;;;;;7.50;3.35;;;;;;;;;;5056368;28;20033;-62
2022/07/13 12:49:51;;;;;;;6.43;3.20;;;;;;;;;;5054845;28;20045;-63
2022/07/13 12:52:21;;;;;;;9.15;2.85;;;;;;;;;;5051992;28;20049;-63
2022/07/13 12:54:52;;;;;;;12.38;3.97;;;;;;;;;;5053450;28;20045;-62
2022/07/13 12:57:24;;;;;;;4.78;2.50;;;;;;;;;;5056093;28;20075;-63
2022/07/13 13:00:17;;;;;;;6.75;2.80;;;;;;;;;;5061862;28;20047;-62
2022/07/13 13:02:43;;;;;;;7.07;3.15;;;;;;;;;;5056297;28;20049;-62
2022/07/13 13:05:10;;;;;;;10.75;2.92;;;;;;;;;;5035060;28;20044;-62
2022/07/13 13:07:37;;;;;;;5.90;2.20;;;;;;;;;;5036011;28;20570;-62
2022/07/13 13:10:04;;;;;;;4.57;2.00;;;;;;;;;;5064464;28;20051;-62
2022/07/13 13:12:30;;;;;;;6.35;2.00;;;;;;;;;;5054367;28;20047;-62
2022/07/13 13:14:57;;;;;;;6.03;2.10;;;;;;;;;;5053405;28;20037;-61
2022/07/13 13:17:23;;;;;;;8.48;2.75;;;;;;;;;;5070788;28;20044;-61
2022/07/13 13:19:49;;;;;;;8.68;2.42;;;;;;;;;;5051677;28;20045;-61
2022/07/13 13:22:16;;;;;;;7.28;2.33;;;;;;;;;;5054449;28;20397;-62
2022/07/13 13:24:42;;;;;;;8.02;2.22;;;;;;;;;;5064022;28;20489;-62
2022/07/13 13:27:08;;;;;;;8.82;2.60;;;;;;;;;;5066999;28;20049;-62
2022/07/13 13:32:20;;;;;;;8.88;2.80;;;;;;;;;;5053194;28;20049;-62
2022/07/13 13:34:47;;;;;;;7.25;2.13;;;;;;;;;;5051819;28;20049;-62
2022/07/13 13:37:13;;;;;;;7.00;2.65;;;;;;;;;;5052795;28;20040;-62
2022/07/13 13:39:39;;;;;;;7.68;2.35;;;;;;;;;;5053357;28;20448;-62
2022/07/13 13:42:05;;;;;;;10.30;2.28;;;;;;;;;;5067360;28;20406;-61
2022/07/13 13:44:31;;;;;;;9.00;2.90;;;;;;;;;;5051521;28;20036;-62
2022/07/13 13:46:57;;;;;;;5.85;2.13;;;;;;;;;;5052283;28;20079;-62
2022/07/13 13:49:23;;;;;;;7.43;2.33;;;;;;;;;;5047072;28;20060;-61
2022/07/13 13:51:49;;;;;;;9.02;2.40;;;;;;;;;;5063290;28;20048;-62
2022/07/13 13:54:15;;;;;;;10.88;2.97;;;;;;;;;;5052648;28;20036;-63
2022/07/13 13:56:41;;;;;;;10.45;2.50;;;;;;;;;;5068823;28;20044;-62
2022/07/13 13:59:07;;;;;;;8.27;2.33;;;;;;;;;;5071570;28;20475;-62
2022/07/13 14:01:34;;;;;;;12.15;2.80;;;;;;;;;;5060678;28;20040;-62
2022/07/13 14:04:00;;;;;;;9.95;2.47;;;;;;;;;;5050610;28;20071;-62
2022/07/13 14:06:26;;;;;;;13.35;3.17;;;23.30;99.90;;;;;;5071580;28;20070;-62
2022/07/13 14:08:52;;;;;;;13.35;3.67;;;;;;;;;;5069545;28;20520;-62
2022/07/13 14:11:18;;;;;;;8.32;2.47;;;23.30;99.90;;;;;;5052239;28;20037;-62
2022/07/13 14:13:46;;;;;;;11.93;3.75;;;;;;;;;;5050846;28;20099;-62
2022/07/13 14:16:13;;;;;;;14.50;3.35;;;;;;;;;;5052490;28;20923;-62
2022/07/13 14:18:38;;;;;;;10.18;2.85;;;23.50;99.90;;;;;;5032695;28;20083;-61
2022/07/13 14:21:04;;;;;;;14.13;3.85;;;23.50;99.90;;;;;;5050690;28;20080;-61
2022/07/13 14:23:30;;;;;;;12.02;3.65;;;23.30;99.90;;;;;;5049793;28;20049;-61